createdAt,value
2018-03-25T00:01:02.875Z,104.4
2018-03-25T00:11:02.641Z,105.8
2018-03-25T00:21:02.476Z,107.5
2018-03-25T00:31:02.556Z,105.3
2018-03-25T00:41:02.238Z,105.5
2018-03-25T00:51:02.028Z,102.7
2018-03-25T01:01:02.802Z,110.7
2018-03-25T01:11:02.598Z,107.2
2018-03-25T01:21:02.495Z,106.4
2018-03-25T01:31:02.275Z,98.9
2018-03-25T01:41:02.014Z,100.1
2018-03-25T01:51:02.781Z,104.1
2018-03-25T02:01:02.571Z,105.3
2018-03-25T02:11:02.335Z,112.6
2018-03-25T02:21:02.220Z,115.5
2018-03-25T02:31:02.035Z,107.7
2018-03-25T02:41:02.739Z,113.0
2018-03-25T02:51:02.499Z,113.0
2018-03-25T03:01:02.257Z,113.9
2018-03-25T03:11:02.010Z,109.9
2018-03-25T03:21:02.873Z,114.2
2018-03-25T03:31:02.565Z,115.2
2018-03-25T03:41:02.358Z,111.6
2018-03-25T03:51:02.178Z,117.2
2018-03-25T04:01:03.016Z,128.2
2018-03-25T04:11:02.776Z,139.9
2018-03-25T04:21:02.586Z,144.7
2018-03-25T04:31:02.569Z,158.6
2018-03-25T04:41:02.277Z,148.2
2018-03-25T04:51:02.684Z,147.8
2018-03-25T05:01:02.457Z,136.4
2018-03-25T05:11:02.283Z,143.7
2018-03-25T05:21:02.176Z,130.0
2018-03-25T05:31:02.944Z,135.1
2018-03-25T05:41:02.671Z,130.8
2018-03-25T05:51:02.460Z,133.4
2018-03-25T06:01:02.416Z,131.4
2018-03-25T06:11:02.161Z,139.3
2018-03-25T06:21:02.064Z,140.0
2018-03-25T06:31:02.876Z,144.3
2018-03-25T06:41:02.645Z,136.5
2018-03-25T06:51:02.407Z,131.9
2018-03-25T07:01:02.267Z,133.0
2018-03-25T07:11:02.133Z,124.1
2018-03-25T07:21:02.038Z,100.0
2018-03-25T07:31:02.869Z,70.4
2018-03-25T07:41:02.663Z,87.0
2018-03-25T07:51:02.457Z,75.3
2018-03-25T08:01:02.237Z,61.0
2018-03-25T08:11:02.291Z,52.5
2018-03-25T08:21:02.182Z,67.8
2018-03-25T08:31:02.996Z,70.5
2018-03-25T08:41:02.821Z,69.9
2018-03-25T08:51:02.585Z,59.9
2018-03-25T09:01:02.417Z,63.5
2018-03-25T09:11:02.157Z,56.3
2018-03-25T09:21:02.006Z,54.1
2018-03-25T09:31:02.814Z,48.9
2018-03-25T09:41:02.590Z,49.7
2018-03-25T09:51:02.406Z,46.8
2018-03-25T10:01:02.243Z,43.8
2018-03-25T10:11:01.891Z,46.3
2018-03-25T10:21:02.835Z,45.3
2018-03-25T10:31:02.685Z,45.3
2018-03-25T10:41:02.460Z,37.9
2018-03-25T10:51:02.342Z,38.6
2018-03-25T11:01:02.254Z,39.1
2018-03-25T11:11:02.144Z,43.4
2018-03-25T11:21:02.125Z,33.9
2018-03-25T11:31:03.053Z,36.4
2018-03-25T11:41:02.889Z,41.3
2018-03-25T11:51:02.746Z,35.9
2018-03-25T12:01:02.516Z,32.3
2018-03-25T12:11:02.374Z,30.1
2018-03-25T12:21:02.384Z,36.7
2018-03-25T12:31:02.260Z,37.6
2018-03-25T12:41:03.110Z,43.2
2018-03-25T12:51:02.935Z,39.3
2018-03-25T13:01:02.879Z,39.4
2018-03-25T13:11:02.794Z,39.0
2018-03-25T13:21:02.778Z,36.5
2018-03-25T13:31:02.621Z,33.7
2018-03-25T13:41:02.443Z,37.9
2018-03-25T13:51:02.227Z,33.9
2018-03-25T14:01:03.063Z,35.7
2018-03-25T14:11:02.917Z,34.8
2018-03-25T14:21:02.928Z,35.4
2018-03-25T14:31:02.739Z,34.8
2018-03-25T14:41:02.591Z,31.1
2018-03-25T14:51:02.425Z,36.4
2018-03-25T15:01:02.277Z,29.4
2018-03-25T15:11:03.091Z,30.6
2018-03-25T15:21:03.098Z,28.7
2018-03-25T15:31:02.900Z,31.2
2018-03-25T15:41:02.737Z,26.6
2018-03-25T15:51:02.598Z,26.3
2018-03-25T16:01:02.520Z,27.7
2018-03-25T16:11:02.387Z,28.1
2018-03-25T16:21:02.355Z,30.8
2018-03-25T16:31:02.115Z,26.4
2018-03-25T16:41:02.919Z,47.8
2018-03-25T16:51:02.738Z,41.7
2018-03-25T17:01:02.585Z,38.2
2018-03-25T17:11:02.426Z,43.4
2018-03-25T17:21:02.357Z,54.1
2018-03-25T17:31:02.214Z,42.2
2018-03-25T17:41:03.052Z,34.0
2018-03-25T17:51:02.853Z,25.5
2018-03-25T18:01:02.659Z,26.5
2018-03-25T18:11:02.563Z,24.9
2018-03-25T18:21:02.496Z,27.6
2018-03-25T18:31:02.364Z,27.4
2018-03-25T18:41:02.138Z,29.8
2018-03-25T18:51:02.978Z,31.4
2018-03-25T19:01:02.849Z,31.9
2018-03-25T19:11:02.682Z,34.4
2018-03-25T19:21:02.571Z,32.2
2018-03-25T19:31:02.320Z,38.9
2018-03-25T19:41:03.136Z,39.4
2018-03-25T19:51:02.986Z,46.9
2018-03-25T20:01:02.874Z,51.1
2018-03-25T20:11:02.697Z,56.7
2018-03-25T20:21:02.656Z,60.3
2018-03-25T20:31:02.476Z,65.8
2018-03-25T20:41:02.280Z,59.2
2018-03-25T20:51:03.096Z,59.8
2018-03-25T21:01:02.955Z,57.5
2018-03-25T21:11:02.769Z,55.7
2018-03-25T21:21:02.729Z,52.9
2018-03-25T21:31:02.686Z,51.5
2018-03-25T21:41:02.534Z,54.4
2018-03-25T21:51:02.425Z,52.3
2018-03-25T22:01:02.237Z,51.8
2018-03-25T22:11:03.076Z,58.3
2018-03-25T22:21:03.011Z,50.1
2018-03-25T22:31:02.833Z,48.6
2018-03-25T22:41:02.537Z,52.5
2018-03-25T22:51:02.364Z,58.5
2018-03-25T23:01:03.203Z,63.7
2018-03-25T23:11:03.033Z,60.9
2018-03-25T23:21:02.978Z,60.5
2018-03-25T23:31:02.779Z,65.9
2018-03-25T23:41:02.578Z,68.4
2018-03-25T23:51:02.410Z,71.3
